sensor_id;sensor_type;location;lat;lon;timestamp;P1;durP1;ratioP1;P2;durP2;ratioP2
17207;SDS011;8720;48.488;9.202;2023-10-09T00:01:47;12.87;;;5.80;;
17207;SDS011;8720;48.488;9.202;2023-10-09T00:04:14;15.90;;;4.70;;
17207;SDS011;8720;48.488;9.202;2023-10-09T00:06:42;13.50;;;5.60;;
17207;SDS011;8720;48.488;9.202;2023-10-09T00:09:11;12.90;;;6.40;;
17207;SDS011;8720;48.488;9.202;2023-10-09T00:11:56;13.20;;;6.00;;
17207;SDS011;8720;48.488;9.202;2023-10-09T00:14:26;14.03;;;6.33;;
17207;SDS011;8720;48.488;9.202;2023-10-09T00:16:59;16.27;;;7.53;;
17207;SDS011;8720;48.488;9.202;2023-10-09T00:19:42;13.47;;;4.77;;
17207;SDS011;8720;48.488;9.202;2023-10-09T00:22:13;14.80;;;5.33;;
17207;SDS011;8720;48.488;9.202;2023-10-09T00:24:53;21.30;;;5.17;;
17207;SDS011;8720;48.488;9.202;2023-10-09T00:27:37;15.40;;;4.93;;
17207;SDS011;8720;48.488;9.202;2023-10-09T00:30:08;12.67;;;5.40;;
17207;SDS011;8720;48.488;9.202;2023-10-09T00:32:40;14.97;;;5.70;;
17207;SDS011;8720;48.488;9.202;2023-10-09T00:35:11;11.57;;;5.33;;
17207;SDS011;8720;48.488;9.202;2023-10-09T00:37:55;13.93;;;5.50;;
17207;SDS011;8720;48.488;9.202;2023-10-09T00:40:31;19.23;;;5.40;;
17207;SDS011;8720;48.488;9.202;2023-10-09T00:43:01;16.90;;;4.47;;
17207;SDS011;8720;48.488;9.202;2023-10-09T00:45:37;12.07;;;4.63;;
17207;SDS011;8720;48.488;9.202;2023-10-09T00:48:05;19.47;;;6.00;;
17207;SDS011;8720;48.488;9.202;2023-10-09T00:50:35;9.27;;;4.40;;
17207;SDS011;8720;48.488;9.202;2023-10-09T00:53:04;11.63;;;5.50;;
17207;SDS011;8720;48.488;9.202;2023-10-09T00:55:39;15.80;;;5.50;;
17207;SDS011;8720;48.488;9.202;2023-10-09T00:58:11;13.07;;;6.30;;
17207;SDS011;8720;48.488;9.202;2023-10-09T01:00:40;16.90;;;6.00;;
17207;SDS011;8720;48.488;9.202;2023-10-09T01:03:13;15.30;;;5.43;;
17207;SDS011;8720;48.488;9.202;2023-10-09T01:05:47;13.30;;;5.27;;
17207;SDS011;8720;48.488;9.202;2023-10-09T01:08:23;13.67;;;5.70;;
17207;SDS011;8720;48.488;9.202;2023-10-09T01:10:55;14.57;;;5.20;;
17207;SDS011;8720;48.488;9.202;2023-10-09T01:13:34;12.30;;;5.10;;
17207;SDS011;8720;48.488;9.202;2023-10-09T01:16:17;15.50;;;5.30;;
17207;SDS011;8720;48.488;9.202;2023-10-09T01:18:48;12.60;;;5.73;;
17207;SDS011;8720;48.488;9.202;2023-10-09T01:21:17;14.33;;;6.27;;
17207;SDS011;8720;48.488;9.202;2023-10-09T01:23:51;14.33;;;5.37;;
17207;SDS011;8720;48.488;9.202;2023-10-09T01:26:29;12.63;;;4.70;;
17207;SDS011;8720;48.488;9.202;2023-10-09T01:28:59;15.37;;;6.07;;
17207;SDS011;8720;48.488;9.202;2023-10-09T01:31:27;15.40;;;6.10;;
17207;SDS011;8720;48.488;9.202;2023-10-09T01:33:59;14.23;;;5.23;;
17207;SDS011;8720;48.488;9.202;2023-10-09T01:36:29;15.30;;;6.40;;
17207;SDS011;8720;48.488;9.202;2023-10-09T01:39:00;19.73;;;5.90;;
17207;SDS011;8720;48.488;9.202;2023-10-09T01:41:33;14.40;;;5.90;;
17207;SDS011;8720;48.488;9.202;2023-10-09T01:44:07;19.63;;;6.37;;
17207;SDS011;8720;48.488;9.202;2023-10-09T01:46:37;17.00;;;5.90;;
17207;SDS011;8720;48.488;9.202;2023-10-09T01:49:06;14.70;;;4.90;;
17207;SDS011;8720;48.488;9.202;2023-10-09T01:51:42;18.20;;;5.90;;
17207;SDS011;8720;48.488;9.202;2023-10-09T01:54:12;14.77;;;5.07;;
17207;SDS011;8720;48.488;9.202;2023-10-09T01:56:58;18.40;;;5.70;;
17207;SDS011;8720;48.488;9.202;2023-10-09T01:59:31;16.03;;;5.50;;
17207;SDS011;8720;48.488;9.202;2023-10-09T02:04:38;13.30;;;5.77;;
17207;SDS011;8720;48.488;9.202;2023-10-09T02:07:06;18.33;;;5.20;;
17207;SDS011;8720;48.488;9.202;2023-10-09T02:09:36;12.80;;;5.70;;
17207;SDS011;8720;48.488;9.202;2023-10-09T02:12:12;10.13;;;5.27;;
17207;SDS011;8720;48.488;9.202;2023-10-09T02:14:39;12.83;;;5.00;;
17207;SDS011;8720;48.488;9.202;2023-10-09T02:17:09;11.23;;;5.63;;
17207;SDS011;8720;48.488;9.202;2023-10-09T02:19:43;11.80;;;5.30;;
17207;SDS011;8720;48.488;9.202;2023-10-09T02:22:15;12.60;;;4.83;;
17207;SDS011;8720;48.488;9.202;2023-10-09T02:24:44;15.47;;;5.43;;
17207;SDS011;8720;48.488;9.202;2023-10-09T02:27:23;18.23;;;6.30;;
17207;SDS011;8720;48.488;9.202;2023-10-09T02:30:17;12.70;;;5.23;;
17207;SDS011;8720;48.488;9.202;2023-10-09T02:32:52;14.60;;;6.13;;
17207;SDS011;8720;48.488;9.202;2023-10-09T02:35:32;18.00;;;5.93;;
17207;SDS011;8720;48.488;9.202;2023-10-09T02:38:08;18.27;;;6.30;;
17207;SDS011;8720;48.488;9.202;2023-10-09T02:40:38;14.43;;;5.93;;
17207;SDS011;8720;48.488;9.202;2023-10-09T02:43:39;15.30;;;6.13;;
17207;SDS011;8720;48.488;9.202;2023-10-09T02:46:10;19.83;;;7.53;;
17207;SDS011;8720;48.488;9.202;2023-10-09T02:48:40;12.40;;;5.27;;
17207;SDS011;8720;48.488;9.202;2023-10-09T02:51:12;12.67;;;6.00;;
17207;SDS011;8720;48.488;9.202;2023-10-09T02:53:47;13.00;;;5.10;;
17207;SDS011;8720;48.488;9.202;2023-10-09T02:56:18;12.73;;;5.67;;
17207;SDS011;8720;48.488;9.202;2023-10-09T02:58:49;9.60;;;4.47;;
17207;SDS011;8720;48.488;9.202;2023-10-09T03:01:17;15.50;;;5.10;;
17207;SDS011;8720;48.488;9.202;2023-10-09T03:03:44;12.80;;;4.80;;
17207;SDS011;8720;48.488;9.202;2023-10-09T03:06:12;17.10;;;5.73;;
17207;SDS011;8720;48.488;9.202;2023-10-09T03:08:44;12.23;;;4.53;;
17207;SDS011;8720;48.488;9.202;2023-10-09T03:11:13;13.43;;;7.37;;
17207;SDS011;8720;48.488;9.202;2023-10-09T03:13:42;16.80;;;5.80;;
17207;SDS011;8720;48.488;9.202;2023-10-09T03:16:10;12.83;;;6.03;;
17207;SDS011;8720;48.488;9.202;2023-10-09T03:18:41;11.10;;;4.37;;
17207;SDS011;8720;48.488;9.202;2023-10-09T03:21:08;9.70;;;4.30;;
17207;SDS011;8720;48.488;9.202;2023-10-09T03:23:36;20.73;;;7.20;;
17207;SDS011;8720;48.488;9.202;2023-10-09T03:26:03;16.23;;;6.30;;
17207;SDS011;8720;48.488;9.202;2023-10-09T03:28:33;12.60;;;5.77;;
17207;SDS011;8720;48.488;9.202;2023-10-09T03:31:02;17.73;;;6.23;;
17207;SDS011;8720;48.488;9.202;2023-10-09T03:33:32;11.83;;;5.37;;
17207;SDS011;8720;48.488;9.202;2023-10-09T03:35:59;19.07;;;5.90;;
17207;SDS011;8720;48.488;9.202;2023-10-09T03:38:27;11.53;;;4.83;;
17207;SDS011;8720;48.488;9.202;2023-10-09T03:41:01;13.40;;;5.60;;
17207;SDS011;8720;48.488;9.202;2023-10-09T03:43:31;12.83;;;5.73;;
17207;SDS011;8720;48.488;9.202;2023-10-09T03:46:05;13.03;;;4.90;;
17207;SDS011;8720;48.488;9.202;2023-10-09T03:48:46;14.53;;;5.37;;
17207;SDS011;8720;48.488;9.202;2023-10-09T03:51:14;15.70;;;5.17;;
17207;SDS011;8720;48.488;9.202;2023-10-09T03:53:46;12.60;;;5.10;;
17207;SDS011;8720;48.488;9.202;2023-10-09T03:56:14;11.70;;;4.37;;
17207;SDS011;8720;48.488;9.202;2023-10-09T03:58:43;13.40;;;5.10;;
17207;SDS011;8720;48.488;9.202;2023-10-09T04:01:15;14.27;;;6.33;;
17207;SDS011;8720;48.488;9.202;2023-10-09T04:03:48;14.50;;;5.77;;
17207;SDS011;8720;48.488;9.202;2023-10-09T04:06:20;12.57;;;5.33;;
17207;SDS011;8720;48.488;9.202;2023-10-09T04:08:48;11.93;;;5.90;;
17207;SDS011;8720;48.488;9.202;2023-10-09T04:11:16;12.33;;;4.77;;
17207;SDS011;8720;48.488;9.202;2023-10-09T04:13:48;18.33;;;6.37;;
17207;SDS011;8720;48.488;9.202;2023-10-09T04:16:18;11.47;;;4.80;;
17207;SDS011;8720;48.488;9.202;2023-10-09T04:18:59;13.43;;;5.60;;
17207;SDS011;8720;48.488;9.202;2023-10-09T04:21:32;13.70;;;5.00;;
17207;SDS011;8720;48.488;9.202;2023-10-09T04:24:01;11.83;;;5.10;;
17207;SDS011;8720;48.488;9.202;2023-10-09T04:26:48;10.23;;;5.53;;
17207;SDS011;8720;48.488;9.202;2023-10-09T04:29:21;11.30;;;3.90;;
17207;SDS011;8720;48.488;9.202;2023-10-09T04:31:54;14.30;;;5.77;;
17207;SDS011;8720;48.488;9.202;2023-10-09T04:34:25;13.03;;;5.57;;
17207;SDS011;8720;48.488;9.202;2023-10-09T04:37:00;10.33;;;5.10;;
17207;SDS011;8720;48.488;9.202;2023-10-09T04:39:45;10.47;;;4.13;;
17207;SDS011;8720;48.488;9.202;2023-10-09T04:42:26;11.63;;;5.50;;
17207;SDS011;8720;48.488;9.202;2023-10-09T04:45:02;12.63;;;4.93;;
17207;SDS011;8720;48.488;9.202;2023-10-09T04:48:13;12.13;;;4.37;;
17207;SDS011;8720;48.488;9.202;2023-10-09T04:50:57;13.07;;;5.27;;
17207;SDS011;8720;48.488;9.202;2023-10-09T04:53:45;14.43;;;4.97;;
17207;SDS011;8720;48.488;9.202;2023-10-09T04:56:13;13.30;;;4.10;;
17207;SDS011;8720;48.488;9.202;2023-10-09T04:58:42;11.23;;;5.60;;
17207;SDS011;8720;48.488;9.202;2023-10-09T05:01:11;15.33;;;4.90;;
17207;SDS011;8720;48.488;9.202;2023-10-09T05:03:42;10.50;;;4.87;;
17207;SDS011;8720;48.488;9.202;2023-10-09T05:06:10;13.13;;;5.07;;
17207;SDS011;8720;48.488;9.202;2023-10-09T05:09:08;9.73;;;4.90;;
17207;SDS011;8720;48.488;9.202;2023-10-09T05:11:39;10.87;;;4.93;;
17207;SDS011;8720;48.488;9.202;2023-10-09T05:14:24;9.60;;;4.80;;
17207;SDS011;8720;48.488;9.202;2023-10-09T05:17:04;11.77;;;5.10;;
17207;SDS011;8720;48.488;9.202;2023-10-09T05:19:42;11.20;;;4.57;;
17207;SDS011;8720;48.488;9.202;2023-10-09T05:22:41;8.10;;;4.37;;
17207;SDS011;8720;48.488;9.202;2023-10-09T05:25:18;17.40;;;5.00;;
17207;SDS011;8720;48.488;9.202;2023-10-09T05:28:05;10.30;;;4.93;;
17207;SDS011;8720;48.488;9.202;2023-10-09T05:30:47;11.20;;;4.40;;
17207;SDS011;8720;48.488;9.202;2023-10-09T05:33:20;14.60;;;4.93;;
17207;SDS011;8720;48.488;9.202;2023-10-09T05:36:00;13.70;;;4.70;;
17207;SDS011;8720;48.488;9.202;2023-10-09T05:38:56;11.30;;;4.70;;
17207;SDS011;8720;48.488;9.202;2023-10-09T05:41:24;9.50;;;4.40;;
17207;SDS011;8720;48.488;9.202;2023-10-09T05:44:12;9.60;;;4.27;;
17207;SDS011;8720;48.488;9.202;2023-10-09T05:47:03;14.93;;;5.40;;
17207;SDS011;8720;48.488;9.202;2023-10-09T05:49:44;11.30;;;4.60;;
17207;SDS011;8720;48.488;9.202;2023-10-09T05:52:28;15.63;;;5.30;;
17207;SDS011;8720;48.488;9.202;2023-10-09T05:54:58;8.87;;;4.50;;
17207;SDS011;8720;48.488;9.202;2023-10-09T05:58:06;11.00;;;5.40;;
17207;SDS011;8720;48.488;9.202;2023-10-09T06:00:59;14.87;;;5.10;;
17207;SDS011;8720;48.488;9.202;2023-10-09T06:03:45;10.48;;;4.78;;
17207;SDS011;8720;48.488;9.202;2023-10-09T06:06:20;13.98;;;5.57;;
17207;SDS011;8720;48.488;9.202;2023-10-09T06:09:03;15.17;;;5.80;;
17207;SDS011;8720;48.488;9.202;2023-10-09T06:11:50;13.50;;;4.90;;
17207;SDS011;8720;48.488;9.202;2023-10-09T06:14:21;13.00;;;5.10;;
17207;SDS011;8720;48.488;9.202;2023-10-09T06:17:14;9.80;;;4.10;;
17207;SDS011;8720;48.488;9.202;2023-10-09T06:19:49;9.67;;;4.70;;
17207;SDS011;8720;48.488;9.202;2023-10-09T06:22:24;13.73;;;5.60;;
17207;SDS011;8720;48.488;9.202;2023-10-09T06:25:10;12.93;;;4.13;;
17207;SDS011;8720;48.488;9.202;2023-10-09T06:27:43;11.43;;;5.27;;
17207;SDS011;8720;48.488;9.202;2023-10-09T06:30:22;11.90;;;4.60;;
17207;SDS011;8720;48.488;9.202;2023-10-09T06:32:52;13.93;;;4.80;;
17207;SDS011;8720;48.488;9.202;2023-10-09T06:35:44;14.37;;;4.97;;
17207;SDS011;8720;48.488;9.202;2023-10-09T06:38:19;9.63;;;4.47;;
17207;SDS011;8720;48.488;9.202;2023-10-09T06:41:00;7.63;;;3.50;;
17207;SDS011;8720;48.488;9.202;2023-10-09T06:43:59;16.00;;;5.10;;
17207;SDS011;8720;48.488;9.202;2023-10-09T06:46:31;9.83;;;4.77;;
17207;SDS011;8720;48.488;9.202;2023-10-09T06:49:09;14.77;;;5.33;;
17207;SDS011;8720;48.488;9.202;2023-10-09T06:51:58;16.80;;;6.60;;
17207;SDS011;8720;48.488;9.202;2023-10-09T06:54:40;11.20;;;4.70;;
17207;SDS011;8720;48.488;9.202;2023-10-09T06:57:17;10.70;;;5.10;;
17207;SDS011;8720;48.488;9.202;2023-10-09T07:00:09;10.03;;;4.20;;
17207;SDS011;8720;48.488;9.202;2023-10-09T07:02:55;13.03;;;4.20;;
17207;SDS011;8720;48.488;9.202;2023-10-09T07:05:23;9.63;;;3.70;;
17207;SDS011;8720;48.488;9.202;2023-10-09T07:07:57;18.47;;;6.67;;
17207;SDS011;8720;48.488;9.202;2023-10-09T07:10:44;12.87;;;6.43;;
17207;SDS011;8720;48.488;9.202;2023-10-09T07:13:29;17.80;;;5.60;;
17207;SDS011;8720;48.488;9.202;2023-10-09T07:16:02;19.67;;;7.53;;
17207;SDS011;8720;48.488;9.202;2023-10-09T07:18:47;17.80;;;7.70;;
17207;SDS011;8720;48.488;9.202;2023-10-09T07:21:20;14.20;;;6.30;;
17207;SDS011;8720;48.488;9.202;2023-10-09T07:23:55;12.57;;;5.53;;
17207;SDS011;8720;48.488;9.202;2023-10-09T07:26:39;17.17;;;6.80;;
17207;SDS011;8720;48.488;9.202;2023-10-09T07:29:14;16.40;;;6.20;;
17207;SDS011;8720;48.488;9.202;2023-10-09T07:31:47;18.27;;;6.40;;
17207;SDS011;8720;48.488;9.202;2023-10-09T07:34:23;15.50;;;6.77;;
17207;SDS011;8720;48.488;9.202;2023-10-09T07:36:57;17.37;;;6.50;;
17207;SDS011;8720;48.488;9.202;2023-10-09T07:39:30;14.40;;;6.30;;
17207;SDS011;8720;48.488;9.202;2023-10-09T07:42:01;11.80;;;5.50;;
17207;SDS011;8720;48.488;9.202;2023-10-09T07:44:53;15.37;;;6.50;;
17207;SDS011;8720;48.488;9.202;2023-10-09T07:47:23;13.77;;;5.90;;
17207;SDS011;8720;48.488;9.202;2023-10-09T07:50:11;16.07;;;6.93;;
17207;SDS011;8720;48.488;9.202;2023-10-09T07:52:46;13.93;;;6.43;;
17207;SDS011;8720;48.488;9.202;2023-10-09T07:55:15;20.33;;;7.50;;
17207;SDS011;8720;48.488;9.202;2023-10-09T07:57:55;15.03;;;7.90;;
17207;SDS011;8720;48.488;9.202;2023-10-09T08:00:24;15.23;;;6.77;;
17207;SDS011;8720;48.488;9.202;2023-10-09T08:03:11;16.93;;;6.90;;
17207;SDS011;8720;48.488;9.202;2023-10-09T08:05:49;18.33;;;7.03;;
17207;SDS011;8720;48.488;9.202;2023-10-09T08:08:18;16.47;;;8.43;;
17207;SDS011;8720;48.488;9.202;2023-10-09T08:11:06;14.93;;;7.20;;
17207;SDS011;8720;48.488;9.202;2023-10-09T08:13:52;15.23;;;6.83;;
17207;SDS011;8720;48.488;9.202;2023-10-09T08:16:29;16.43;;;7.30;;
17207;SDS011;8720;48.488;9.202;2023-10-09T08:19:03;13.47;;;6.20;;
17207;SDS011;8720;48.488;9.202;2023-10-09T08:21:57;17.20;;;7.67;;
17207;SDS011;8720;48.488;9.202;2023-10-09T08:25:03;16.83;;;6.57;;
17207;SDS011;8720;48.488;9.202;2023-10-09T08:27:30;12.90;;;6.40;;
17207;SDS011;8720;48.488;9.202;2023-10-09T08:30:20;11.93;;;6.00;;
17207;SDS011;8720;48.488;9.202;2023-10-09T08:33:07;12.07;;;6.80;;
17207;SDS011;8720;48.488;9.202;2023-10-09T08:35:52;12.10;;;5.60;;
17207;SDS011;8720;48.488;9.202;2023-10-09T08:38:27;17.40;;;5.93;;
17207;SDS011;8720;48.488;9.202;2023-10-09T08:41:05;15.47;;;6.97;;
17207;SDS011;8720;48.488;9.202;2023-10-09T08:43:43;12.27;;;5.70;;
17207;SDS011;8720;48.488;9.202;2023-10-09T08:46:19;12.10;;;5.10;;
17207;SDS011;8720;48.488;9.202;2023-10-09T08:48:50;12.57;;;4.60;;
17207;SDS011;8720;48.488;9.202;2023-10-09T08:51:17;11.60;;;3.90;;
17207;SDS011;8720;48.488;9.202;2023-10-09T08:53:46;11.10;;;3.43;;
17207;SDS011;8720;48.488;9.202;2023-10-09T08:56:14;15.33;;;4.27;;
17207;SDS011;8720;48.488;9.202;2023-10-09T08:58:48;10.13;;;3.80;;
17207;SDS011;8720;48.488;9.202;2023-10-09T09:01:17;8.50;;;3.60;;
17207;SDS011;8720;48.488;9.202;2023-10-09T09:03:51;9.90;;;3.50;;
17207;SDS011;8720;48.488;9.202;2023-10-09T09:06:22;14.97;;;3.80;;
17207;SDS011;8720;48.488;9.202;2023-10-09T09:08:50;9.10;;;3.70;;
17207;SDS011;8720;48.488;9.202;2023-10-09T09:11:24;14.23;;;3.60;;
17207;SDS011;8720;48.488;9.202;2023-10-09T09:14:02;10.30;;;3.67;;
17207;SDS011;8720;48.488;9.202;2023-10-09T09:16:31;12.87;;;3.47;;
17207;SDS011;8720;48.488;9.202;2023-10-09T09:19:03;6.23;;;2.80;;
17207;SDS011;8720;48.488;9.202;2023-10-09T09:21:43;10.83;;;3.00;;
17207;SDS011;8720;48.488;9.202;2023-10-09T09:24:19;12.70;;;3.70;;
17207;SDS011;8720;48.488;9.202;2023-10-09T09:26:56;7.80;;;3.27;;
17207;SDS011;8720;48.488;9.202;2023-10-09T09:29:38;11.83;;;3.40;;
17207;SDS011;8720;48.488;9.202;2023-10-09T09:32:08;10.93;;;3.67;;
17207;SDS011;8720;48.488;9.202;2023-10-09T09:34:45;9.80;;;4.17;;
17207;SDS011;8720;48.488;9.202;2023-10-09T09:37:18;7.57;;;4.43;;
17207;SDS011;8720;48.488;9.202;2023-10-09T09:39:47;12.13;;;3.60;;
17207;SDS011;8720;48.488;9.202;2023-10-09T09:42:16;9.73;;;3.80;;
17207;SDS011;8720;48.488;9.202;2023-10-09T09:44:50;10.63;;;2.90;;
17207;SDS011;8720;48.488;9.202;2023-10-09T09:47:19;6.77;;;3.40;;
17207;SDS011;8720;48.488;9.202;2023-10-09T09:49:53;10.77;;;4.60;;
17207;SDS011;8720;48.488;9.202;2023-10-09T09:52:29;8.57;;;3.50;;
17207;SDS011;8720;48.488;9.202;2023-10-09T09:55:03;10.00;;;3.83;;
17207;SDS011;8720;48.488;9.202;2023-10-09T09:57:39;8.00;;;3.43;;
17207;SDS011;8720;48.488;9.202;2023-10-09T10:00:11;12.40;;;4.00;;
17207;SDS011;8720;48.488;9.202;2023-10-09T10:02:54;6.73;;;3.20;;
17207;SDS011;8720;48.488;9.202;2023-10-09T10:05:29;11.00;;;3.27;;
17207;SDS011;8720;48.488;9.202;2023-10-09T10:07:59;8.70;;;3.30;;
17207;SDS011;8720;48.488;9.202;2023-10-09T10:10:33;8.80;;;3.50;;
17207;SDS011;8720;48.488;9.202;2023-10-09T10:13:15;9.27;;;3.37;;
17207;SDS011;8720;48.488;9.202;2023-10-09T10:16:05;6.60;;;3.63;;
17207;SDS011;8720;48.488;9.202;2023-10-09T10:18:55;12.60;;;4.90;;
17207;SDS011;8720;48.488;9.202;2023-10-09T10:21:34;18.10;;;3.30;;
17207;SDS011;8720;48.488;9.202;2023-10-09T10:27:19;14.70;;;4.50;;
17207;SDS011;8720;48.488;9.202;2023-10-09T10:33:02;8.27;;;3.40;;
17207;SDS011;8720;48.488;9.202;2023-10-09T10:35:37;9.77;;;3.63;;
17207;SDS011;8720;48.488;9.202;2023-10-09T10:38:26;8.43;;;3.30;;
17207;SDS011;8720;48.488;9.202;2023-10-09T10:41:09;9.60;;;3.90;;
17207;SDS011;8720;48.488;9.202;2023-10-09T10:43:40;14.27;;;4.17;;
17207;SDS011;8720;48.488;9.202;2023-10-09T10:46:22;12.17;;;4.27;;
17207;SDS011;8720;48.488;9.202;2023-10-09T10:48:56;10.50;;;4.00;;
17207;SDS011;8720;48.488;9.202;2023-10-09T10:51:35;15.97;;;4.40;;
17207;SDS011;8720;48.488;9.202;2023-10-09T10:54:05;10.53;;;3.67;;
17207;SDS011;8720;48.488;9.202;2023-10-09T10:56:51;11.90;;;4.07;;
17207;SDS011;8720;48.488;9.202;2023-10-09T10:59:23;10.00;;;5.70;;
17207;SDS011;8720;48.488;9.202;2023-10-09T11:01:50;9.30;;;4.77;;
17207;SDS011;8720;48.488;9.202;2023-10-09T11:04:39;16.33;;;4.53;;
17207;SDS011;8720;48.488;9.202;2023-10-09T11:07:09;13.80;;;4.30;;
17207;SDS011;8720;48.488;9.202;2023-10-09T11:09:45;12.90;;;4.60;;
17207;SDS011;8720;48.488;9.202;2023-10-09T11:12:42;12.23;;;4.20;;
17207;SDS011;8720;48.488;9.202;2023-10-09T11:15:32;15.67;;;4.77;;
17207;SDS011;8720;48.488;9.202;2023-10-09T11:18:20;13.17;;;4.67;;
17207;SDS011;8720;48.488;9.202;2023-10-09T11:20:51;13.63;;;4.20;;
17207;SDS011;8720;48.488;9.202;2023-10-09T11:23:39;21.30;;;4.97;;
17207;SDS011;8720;48.488;9.202;2023-10-09T11:26:20;11.90;;;4.53;;
17207;SDS011;8720;48.488;9.202;2023-10-09T11:29:05;13.60;;;5.00;;
17207;SDS011;8720;48.488;9.202;2023-10-09T11:31:40;12.53;;;4.80;;
17207;SDS011;8720;48.488;9.202;2023-10-09T11:37:00;14.80;;;4.23;;
17207;SDS011;8720;48.488;9.202;2023-10-09T11:39:37;12.03;;;5.60;;
17207;SDS011;8720;48.488;9.202;2023-10-09T11:42:18;18.13;;;4.53;;
17207;SDS011;8720;48.488;9.202;2023-10-09T11:45:01;11.90;;;5.00;;
17207;SDS011;8720;48.488;9.202;2023-10-09T11:47:45;15.27;;;4.70;;
17207;SDS011;8720;48.488;9.202;2023-10-09T11:53:19;18.67;;;5.37;;
17207;SDS011;8720;48.488;9.202;2023-10-09T11:56:02;13.00;;;4.40;;
17207;SDS011;8720;48.488;9.202;2023-10-09T11:58:31;10.03;;;3.60;;
17207;SDS011;8720;48.488;9.202;2023-10-09T12:00:59;11.30;;;4.03;;
17207;SDS011;8720;48.488;9.202;2023-10-09T12:03:43;12.10;;;3.93;;
17207;SDS011;8720;48.488;9.202;2023-10-09T12:06:15;17.27;;;5.10;;
17207;SDS011;8720;48.488;9.202;2023-10-09T12:08:47;10.93;;;4.03;;
17207;SDS011;8720;48.488;9.202;2023-10-09T12:11:16;12.57;;;4.30;;
17207;SDS011;8720;48.488;9.202;2023-10-09T12:13:49;15.50;;;3.87;;
17207;SDS011;8720;48.488;9.202;2023-10-09T12:16:21;12.83;;;4.77;;
17207;SDS011;8720;48.488;9.202;2023-10-09T12:18:53;10.63;;;4.43;;
17207;SDS011;8720;48.488;9.202;2023-10-09T12:21:22;13.17;;;5.67;;
17207;SDS011;8720;48.488;9.202;2023-10-09T12:23:53;8.67;;;4.37;;
17207;SDS011;8720;48.488;9.202;2023-10-09T12:26:22;15.53;;;4.30;;
17207;SDS011;8720;48.488;9.202;2023-10-09T12:28:52;11.67;;;4.30;;
17207;SDS011;8720;48.488;9.202;2023-10-09T12:31:19;14.73;;;4.50;;
17207;SDS011;8720;48.488;9.202;2023-10-09T12:33:49;11.93;;;4.80;;
17207;SDS011;8720;48.488;9.202;2023-10-09T12:36:16;10.50;;;3.60;;
17207;SDS011;8720;48.488;9.202;2023-10-09T12:38:45;13.63;;;4.60;;
17207;SDS011;8720;48.488;9.202;2023-10-09T12:41:18;14.13;;;4.30;;
17207;SDS011;8720;48.488;9.202;2023-10-09T12:43:52;16.37;;;5.10;;
17207;SDS011;8720;48.488;9.202;2023-10-09T12:46:20;14.17;;;4.23;;
17207;SDS011;8720;48.488;9.202;2023-10-09T12:48:48;11.70;;;4.13;;
17207;SDS011;8720;48.488;9.202;2023-10-09T12:51:16;9.70;;;3.67;;
17207;SDS011;8720;48.488;9.202;2023-10-09T12:53:44;14.43;;;5.20;;
17207;SDS011;8720;48.488;9.202;2023-10-09T12:56:14;12.17;;;4.23;;
17207;SDS011;8720;48.488;9.202;2023-10-09T12:58:43;14.63;;;4.97;;
17207;SDS011;8720;48.488;9.202;2023-10-09T13:01:19;14.57;;;4.37;;
17207;SDS011;8720;48.488;9.202;2023-10-09T13:03:46;11.80;;;4.57;;
17207;SDS011;8720;48.488;9.202;2023-10-09T13:06:14;14.47;;;4.40;;
17207;SDS011;8720;48.488;9.202;2023-10-09T13:08:49;10.80;;;4.43;;
17207;SDS011;8720;48.488;9.202;2023-10-09T13:11:17;15.23;;;4.87;;
17207;SDS011;8720;48.488;9.202;2023-10-09T13:13:45;15.23;;;4.17;;
17207;SDS011;8720;48.488;9.202;2023-10-09T13:16:16;12.20;;;4.60;;
17207;SDS011;8720;48.488;9.202;2023-10-09T13:18:49;15.00;;;5.37;;
17207;SDS011;8720;48.488;9.202;2023-10-09T13:21:17;20.10;;;4.90;;
17207;SDS011;8720;48.488;9.202;2023-10-09T13:23:47;15.67;;;4.53;;
17207;SDS011;8720;48.488;9.202;2023-10-09T13:26:16;14.00;;;4.60;;
17207;SDS011;8720;48.488;9.202;2023-10-09T13:28:53;17.00;;;4.60;;
17207;SDS011;8720;48.488;9.202;2023-10-09T13:31:24;13.87;;;4.17;;
17207;SDS011;8720;48.488;9.202;2023-10-09T13:33:53;14.97;;;5.47;;
17207;SDS011;8720;48.488;9.202;2023-10-09T13:36:23;13.97;;;5.30;;
17207;SDS011;8720;48.488;9.202;2023-10-09T13:38:56;10.13;;;4.57;;
17207;SDS011;8720;48.488;9.202;2023-10-09T13:41:27;14.97;;;4.37;;
17207;SDS011;8720;48.488;9.202;2023-10-09T13:43:55;15.90;;;3.70;;
17207;SDS011;8720;48.488;9.202;2023-10-09T13:46:24;15.90;;;4.40;;
17207;SDS011;8720;48.488;9.202;2023-10-09T13:48:55;14.27;;;4.30;;
17207;SDS011;8720;48.488;9.202;2023-10-09T13:51:22;10.50;;;4.80;;
17207;SDS011;8720;48.488;9.202;2023-10-09T13:53:50;13.87;;;4.57;;
17207;SDS011;8720;48.488;9.202;2023-10-09T13:56:19;9.90;;;3.83;;
17207;SDS011;8720;48.488;9.202;2023-10-09T13:58:47;10.80;;;4.40;;
17207;SDS011;8720;48.488;9.202;2023-10-09T14:01:17;14.07;;;4.63;;
17207;SDS011;8720;48.488;9.202;2023-10-09T14:03:55;11.80;;;4.03;;
17207;SDS011;8720;48.488;9.202;2023-10-09T14:06:25;16.03;;;4.70;;
17207;SDS011;8720;48.488;9.202;2023-10-09T14:08:57;11.30;;;4.20;;
17207;SDS011;8720;48.488;9.202;2023-10-09T14:11:29;10.17;;;4.00;;
17207;SDS011;8720;48.488;9.202;2023-10-09T14:13:56;9.70;;;4.23;;
17207;SDS011;8720;48.488;9.202;2023-10-09T14:16:26;22.50;;;5.43;;
17207;SDS011;8720;48.488;9.202;2023-10-09T14:18:56;14.57;;;4.70;;
17207;SDS011;8720;48.488;9.202;2023-10-09T14:21:25;14.73;;;4.50;;
17207;SDS011;8720;48.488;9.202;2023-10-09T14:23:55;13.23;;;4.00;;
17207;SDS011;8720;48.488;9.202;2023-10-09T14:26:27;11.80;;;4.03;;
17207;SDS011;8720;48.488;9.202;2023-10-09T14:28:55;12.57;;;4.93;;
17207;SDS011;8720;48.488;9.202;2023-10-09T14:31:24;14.80;;;5.40;;
17207;SDS011;8720;48.488;9.202;2023-10-09T14:33:56;14.60;;;4.00;;
17207;SDS011;8720;48.488;9.202;2023-10-09T14:36:24;13.70;;;4.33;;
17207;SDS011;8720;48.488;9.202;2023-10-09T14:38:58;12.57;;;4.90;;
17207;SDS011;8720;48.488;9.202;2023-10-09T14:41:26;13.27;;;4.53;;
17207;SDS011;8720;48.488;9.202;2023-10-09T14:43:58;12.43;;;4.70;;
17207;SDS011;8720;48.488;9.202;2023-10-09T14:46:26;11.40;;;4.93;;
17207;SDS011;8720;48.488;9.202;2023-10-09T14:48:54;13.50;;;5.10;;
17207;SDS011;8720;48.488;9.202;2023-10-09T14:51:25;7.70;;;4.57;;
17207;SDS011;8720;48.488;9.202;2023-10-09T14:53:56;11.63;;;4.10;;
17207;SDS011;8720;48.488;9.202;2023-10-09T14:56:25;9.37;;;4.17;;
17207;SDS011;8720;48.488;9.202;2023-10-09T14:58:55;12.23;;;4.37;;
17207;SDS011;8720;48.488;9.202;2023-10-09T15:01:24;13.77;;;5.00;;
17207;SDS011;8720;48.488;9.202;2023-10-09T15:03:54;11.80;;;4.70;;
17207;SDS011;8720;48.488;9.202;2023-10-09T15:06:26;16.73;;;4.60;;
17207;SDS011;8720;48.488;9.202;2023-10-09T15:08:57;12.33;;;4.87;;
17207;SDS011;8720;48.488;9.202;2023-10-09T15:11:33;8.30;;;4.40;;
17207;SDS011;8720;48.488;9.202;2023-10-09T15:14:04;17.53;;;4.70;;
17207;SDS011;8720;48.488;9.202;2023-10-09T15:16:34;10.10;;;4.00;;
17207;SDS011;8720;48.488;9.202;2023-10-09T15:19:06;12.23;;;4.63;;
17207;SDS011;8720;48.488;9.202;2023-10-09T15:21:35;11.80;;;4.50;;
17207;SDS011;8720;48.488;9.202;2023-10-09T15:24:09;9.60;;;3.73;;
17207;SDS011;8720;48.488;9.202;2023-10-09T15:26:40;9.27;;;4.30;;
17207;SDS011;8720;48.488;9.202;2023-10-09T15:29:09;10.57;;;3.83;;
17207;SDS011;8720;48.488;9.202;2023-10-09T15:31:37;8.50;;;4.03;;
17207;SDS011;8720;48.488;9.202;2023-10-09T15:34:08;12.40;;;5.43;;
17207;SDS011;8720;48.488;9.202;2023-10-09T15:36:35;10.70;;;3.60;;
17207;SDS011;8720;48.488;9.202;2023-10-09T15:39:03;10.67;;;4.07;;
17207;SDS011;8720;48.488;9.202;2023-10-09T15:41:33;11.83;;;4.10;;
17207;SDS011;8720;48.488;9.202;2023-10-09T15:44:01;16.67;;;4.60;;
17207;SDS011;8720;48.488;9.202;2023-10-09T15:46:34;10.97;;;4.10;;
17207;SDS011;8720;48.488;9.202;2023-10-09T15:49:03;11.03;;;4.23;;
17207;SDS011;8720;48.488;9.202;2023-10-09T15:51:33;12.00;;;4.00;;